Terminal Aerodrome Forecast
Issued by NWS

Home | Current Version | Previous Version | Text Only | Print | Product List | Glossary On
Versions: 1 2 3 4 5 6 7 8 9 10 11 12 13 14
000
FTUS41 KBTV 240204 AAA
TAFRUT
TAF AMD
KRUT 240204Z 2402/2424 13004KT P6SM SCT070
     FM240600 13004KT 3SM BR SCT001
      TEMPO 2407/2411 1/2SM FG VV001
     FM241200 33005KT P6SM SCT040
      AMD LTD TO CLD VIS AND WIND=

USA.gov is the U.S. government's official web portal to all federal, state and local government web resources and services.